Terminal Aerodrome Forecast
Issued by NWS Mobile, AL

Home | Current Version | Previous Version | Text Only | Print | Product List | Glossary On
Versions: 1 2 3 4 5 6 7 8 9 10 11 12 13 14 15 16 17
000
FTUS44 KMOB 280615 RRA
TAFMOB
TAF
KMOB 280615Z 2806/2906 02003KT P6SM SKC
     FM281200 05005KT P6SM VCSH FEW040 BKN100
     FM281700 13008KT P6SM VCSH BKN050 BKN100=

USA.gov is the U.S. government's official web portal to all federal, state and local government web resources and services.